sensor_id;sensor_type;location;lat;lon;timestamp;temperature;humidity
5775;DHT22;2913;51.120;6.772;2023-02-04T00:01:09;9.10;99.90
5775;DHT22;2913;51.120;6.772;2023-02-04T00:03:35;9.10;99.90
5775;DHT22;2913;51.120;6.772;2023-02-04T00:06:01;9.00;99.90
5775;DHT22;2913;51.120;6.772;2023-02-04T00:08:26;9.00;99.90
5775;DHT22;2913;51.120;6.772;2023-02-04T00:10:52;9.00;99.90
5775;DHT22;2913;51.120;6.772;2023-02-04T00:13:17;9.00;99.90
5775;DHT22;2913;51.120;6.772;2023-02-04T00:15:43;8.90;99.90
5775;DHT22;2913;51.120;6.772;2023-02-04T00:18:09;8.90;99.90
5775;DHT22;2913;51.120;6.772;2023-02-04T00:20:37;8.90;99.90
5775;DHT22;2913;51.120;6.772;2023-02-04T00:23:03;8.90;99.90
5775;DHT22;2913;51.120;6.772;2023-02-04T00:25:31;8.80;99.90
5775;DHT22;2913;51.120;6.772;2023-02-04T00:27:58;8.80;99.90
5775;DHT22;2913;51.120;6.772;2023-02-04T00:30:24;8.80;99.90
5775;DHT22;2913;51.120;6.772;2023-02-04T00:32:52;8.80;99.90
5775;DHT22;2913;51.120;6.772;2023-02-04T00:35:22;8.80;99.90
5775;DHT22;2913;51.120;6.772;2023-02-04T00:37:48;8.80;99.90
5775;DHT22;2913;51.120;6.772;2023-02-04T00:40:14;8.80;99.90
5775;DHT22;2913;51.120;6.772;2023-02-04T00:42:40;8.80;99.90
5775;DHT22;2913;51.120;6.772;2023-02-04T00:45:06;8.70;99.90
5775;DHT22;2913;51.120;6.772;2023-02-04T00:47:31;8.70;99.90
5775;DHT22;2913;51.120;6.772;2023-02-04T00:49:57;8.70;99.90
5775;DHT22;2913;51.120;6.772;2023-02-04T00:52:27;8.70;99.90
5775;DHT22;2913;51.120;6.772;2023-02-04T00:54:55;8.70;99.90
5775;DHT22;2913;51.120;6.772;2023-02-04T00:57:21;8.70;99.90
5775;DHT22;2913;51.120;6.772;2023-02-04T00:59:47;8.70;99.90
5775;DHT22;2913;51.120;6.772;2023-02-04T01:02:12;8.70;99.90
5775;DHT22;2913;51.120;6.772;2023-02-04T01:04:38;8.80;99.90
5775;DHT22;2913;51.120;6.772;2023-02-04T01:07:04;8.80;99.90
5775;DHT22;2913;51.120;6.772;2023-02-04T01:09:32;8.80;99.90
5775;DHT22;2913;51.120;6.772;2023-02-04T01:11:58;8.80;99.90
5775;DHT22;2913;51.120;6.772;2023-02-04T01:14:24;8.80;99.90
5775;DHT22;2913;51.120;6.772;2023-02-04T01:16:49;8.80;99.90
5775;DHT22;2913;51.120;6.772;2023-02-04T01:19:17;8.80;99.90
5775;DHT22;2913;51.120;6.772;2023-02-04T01:21:46;8.80;99.90
5775;DHT22;2913;51.120;6.772;2023-02-04T01:24:13;8.80;99.90
5775;DHT22;2913;51.120;6.772;2023-02-04T01:26:39;8.80;99.90
5775;DHT22;2913;51.120;6.772;2023-02-04T01:29:05;8.80;99.90
5775;DHT22;2913;51.120;6.772;2023-02-04T01:31:30;8.80;99.90
5775;DHT22;2913;51.120;6.772;2023-02-04T01:34:00;8.70;99.90
5775;DHT22;2913;51.120;6.772;2023-02-04T01:36:26;8.70;99.90
5775;DHT22;2913;51.120;6.772;2023-02-04T01:38:52;8.70;99.90
5775;DHT22;2913;51.120;6.772;2023-02-04T01:41:20;8.70;99.90
5775;DHT22;2913;51.120;6.772;2023-02-04T01:43:49;8.70;99.90
5775;DHT22;2913;51.120;6.772;2023-02-04T01:46:15;8.60;99.90
5775;DHT22;2913;51.120;6.772;2023-02-04T01:48:41;8.60;99.90
5775;DHT22;2913;51.120;6.772;2023-02-04T01:51:14;8.60;99.90
5775;DHT22;2913;51.120;6.772;2023-02-04T01:53:40;8.50;99.90
5775;DHT22;2913;51.120;6.772;2023-02-04T01:56:18;8.60;99.90
5775;DHT22;2913;51.120;6.772;2023-02-04T01:58:47;8.60;99.90
5775;DHT22;2913;51.120;6.772;2023-02-04T02:01:15;8.60;99.90
5775;DHT22;2913;51.120;6.772;2023-02-04T02:03:41;8.60;99.90
5775;DHT22;2913;51.120;6.772;2023-02-04T02:06:12;8.60;99.90
5775;DHT22;2913;51.120;6.772;2023-02-04T02:08:40;8.60;99.90
5775;DHT22;2913;51.120;6.772;2023-02-04T02:11:05;8.70;99.90
5775;DHT22;2913;51.120;6.772;2023-02-04T02:13:33;8.70;99.90
5775;DHT22;2913;51.120;6.772;2023-02-04T02:15:59;8.70;99.90
5775;DHT22;2913;51.120;6.772;2023-02-04T02:18:27;8.70;99.90
5775;DHT22;2913;51.120;6.772;2023-02-04T02:20:53;8.70;99.90
5775;DHT22;2913;51.120;6.772;2023-02-04T02:26:09;8.70;99.90
5775;DHT22;2913;51.120;6.772;2023-02-04T02:28:35;8.70;99.90
5775;DHT22;2913;51.120;6.772;2023-02-04T02:31:02;8.70;99.90
5775;DHT22;2913;51.120;6.772;2023-02-04T02:33:30;8.70;99.90
5775;DHT22;2913;51.120;6.772;2023-02-04T02:35:56;8.70;99.90
5775;DHT22;2913;51.120;6.772;2023-02-04T02:38:22;8.70;99.90
5775;DHT22;2913;51.120;6.772;2023-02-04T02:40:50;8.70;99.90
5775;DHT22;2913;51.120;6.772;2023-02-04T02:43:22;8.70;99.90
5775;DHT22;2913;51.120;6.772;2023-02-04T02:45:48;8.70;99.90
5775;DHT22;2913;51.120;6.772;2023-02-04T02:48:14;8.70;99.90
5775;DHT22;2913;51.120;6.772;2023-02-04T02:50:41;8.70;99.90
5775;DHT22;2913;51.120;6.772;2023-02-04T02:53:11;8.70;99.90
5775;DHT22;2913;51.120;6.772;2023-02-04T02:55:40;8.70;99.90
5775;DHT22;2913;51.120;6.772;2023-02-04T02:58:21;8.70;99.90
5775;DHT22;2913;51.120;6.772;2023-02-04T03:00:50;8.70;99.90
5775;DHT22;2913;51.120;6.772;2023-02-04T03:03:20;8.60;99.90
5775;DHT22;2913;51.120;6.772;2023-02-04T03:05:59;8.70;99.90
5775;DHT22;2913;51.120;6.772;2023-02-04T03:08:26;8.60;99.90
5775;DHT22;2913;51.120;6.772;2023-02-04T03:10:54;8.60;99.90
5775;DHT22;2913;51.120;6.772;2023-02-04T03:13:20;8.60;99.90
5775;DHT22;2913;51.120;6.772;2023-02-04T03:15:47;8.60;99.90
5775;DHT22;2913;51.120;6.772;2023-02-04T03:18:15;8.60;99.90
5775;DHT22;2913;51.120;6.772;2023-02-04T03:20:43;8.60;99.90
5775;DHT22;2913;51.120;6.772;2023-02-04T03:23:10;8.50;99.90
5775;DHT22;2913;51.120;6.772;2023-02-04T03:25:41;8.60;99.90
5775;DHT22;2913;51.120;6.772;2023-02-04T03:28:09;8.50;99.90
5775;DHT22;2913;51.120;6.772;2023-02-04T03:30:35;8.50;99.90
5775;DHT22;2913;51.120;6.772;2023-02-04T03:33:01;8.50;99.90
5775;DHT22;2913;51.120;6.772;2023-02-04T03:35:29;8.50;99.90
5775;DHT22;2913;51.120;6.772;2023-02-04T03:37:54;8.40;99.90
5775;DHT22;2913;51.120;6.772;2023-02-04T03:40:22;8.40;99.90
5775;DHT22;2913;51.120;6.772;2023-02-04T03:42:47;8.40;99.90
5775;DHT22;2913;51.120;6.772;2023-02-04T03:45:16;8.50;99.90
5775;DHT22;2913;51.120;6.772;2023-02-04T03:47:46;8.40;99.90
5775;DHT22;2913;51.120;6.772;2023-02-04T03:50:12;8.40;99.90
5775;DHT22;2913;51.120;6.772;2023-02-04T03:52:38;8.40;99.90
5775;DHT22;2913;51.120;6.772;2023-02-04T03:55:07;8.40;99.90
5775;DHT22;2913;51.120;6.772;2023-02-04T03:57:32;8.40;99.90
5775;DHT22;2913;51.120;6.772;2023-02-04T04:00:00;8.40;99.90
5775;DHT22;2913;51.120;6.772;2023-02-04T04:02:26;8.30;99.90
5775;DHT22;2913;51.120;6.772;2023-02-04T04:04:54;8.30;99.90
5775;DHT22;2913;51.120;6.772;2023-02-04T04:07:19;8.30;99.90
5775;DHT22;2913;51.120;6.772;2023-02-04T04:09:45;8.30;99.90
5775;DHT22;2913;51.120;6.772;2023-02-04T04:12:13;8.30;99.90
5775;DHT22;2913;51.120;6.772;2023-02-04T04:14:41;8.20;99.90
5775;DHT22;2913;51.120;6.772;2023-02-04T04:17:06;8.20;99.90
5775;DHT22;2913;51.120;6.772;2023-02-04T04:19:32;8.20;99.90
5775;DHT22;2913;51.120;6.772;2023-02-04T04:21:58;8.20;99.90
5775;DHT22;2913;51.120;6.772;2023-02-04T04:24:23;8.20;99.90
5775;DHT22;2913;51.120;6.772;2023-02-04T04:26:49;8.20;99.90
5775;DHT22;2913;51.120;6.772;2023-02-04T04:29:14;8.10;99.90
5775;DHT22;2913;51.120;6.772;2023-02-04T04:31:40;8.20;99.90
5775;DHT22;2913;51.120;6.772;2023-02-04T04:34:08;8.10;99.90
5775;DHT22;2913;51.120;6.772;2023-02-04T04:36:34;8.10;99.90
5775;DHT22;2913;51.120;6.772;2023-02-04T04:39:04;8.10;99.90
5775;DHT22;2913;51.120;6.772;2023-02-04T04:41:29;8.10;99.90
5775;DHT22;2913;51.120;6.772;2023-02-04T04:43:55;8.10;99.90
5775;DHT22;2913;51.120;6.772;2023-02-04T04:46:21;8.10;99.90
5775;DHT22;2913;51.120;6.772;2023-02-04T04:48:46;8.10;99.90
5775;DHT22;2913;51.120;6.772;2023-02-04T04:51:12;8.00;99.90
5775;DHT22;2913;51.120;6.772;2023-02-04T04:53:40;8.00;99.90
5775;DHT22;2913;51.120;6.772;2023-02-04T04:56:10;8.00;99.90
5775;DHT22;2913;51.120;6.772;2023-02-04T04:58:36;8.00;99.90
5775;DHT22;2913;51.120;6.772;2023-02-04T05:01:02;8.00;99.90
5775;DHT22;2913;51.120;6.772;2023-02-04T05:03:29;8.00;99.90
5775;DHT22;2913;51.120;6.772;2023-02-04T05:05:55;8.00;99.90
5775;DHT22;2913;51.120;6.772;2023-02-04T05:08:21;8.00;99.90
5775;DHT22;2913;51.120;6.772;2023-02-04T05:10:46;7.90;99.90
5775;DHT22;2913;51.120;6.772;2023-02-04T05:13:12;7.90;99.90
5775;DHT22;2913;51.120;6.772;2023-02-04T05:15:38;8.00;99.90
5775;DHT22;2913;51.120;6.772;2023-02-04T05:18:04;7.90;99.90
5775;DHT22;2913;51.120;6.772;2023-02-04T05:20:30;7.90;99.90
5775;DHT22;2913;51.120;6.772;2023-02-04T05:22:56;8.00;99.90
5775;DHT22;2913;51.120;6.772;2023-02-04T05:25:27;8.00;99.90
5775;DHT22;2913;51.120;6.772;2023-02-04T05:27:53;7.90;99.90
5775;DHT22;2913;51.120;6.772;2023-02-04T05:30:19;7.90;99.90
5775;DHT22;2913;51.120;6.772;2023-02-04T05:32:45;7.90;99.90
5775;DHT22;2913;51.120;6.772;2023-02-04T05:35:11;7.80;99.90
5775;DHT22;2913;51.120;6.772;2023-02-04T05:37:36;7.80;99.90
5775;DHT22;2913;51.120;6.772;2023-02-04T05:40:02;7.80;99.90
5775;DHT22;2913;51.120;6.772;2023-02-04T05:42:28;7.80;99.90
5775;DHT22;2913;51.120;6.772;2023-02-04T05:44:54;7.80;99.90
5775;DHT22;2913;51.120;6.772;2023-02-04T05:47:22;7.80;99.90
5775;DHT22;2913;51.120;6.772;2023-02-04T05:49:50;7.80;99.90
5775;DHT22;2913;51.120;6.772;2023-02-04T05:52:15;7.80;99.90
5775;DHT22;2913;51.120;6.772;2023-02-04T05:54:43;7.80;99.90
5775;DHT22;2913;51.120;6.772;2023-02-04T05:57:09;7.80;99.90
5775;DHT22;2913;51.120;6.772;2023-02-04T05:59:34;7.90;99.90
5775;DHT22;2913;51.120;6.772;2023-02-04T06:02:02;7.90;99.90
5775;DHT22;2913;51.120;6.772;2023-02-04T06:04:28;7.80;99.90
5775;DHT22;2913;51.120;6.772;2023-02-04T06:06:54;7.90;99.90
5775;DHT22;2913;51.120;6.772;2023-02-04T06:09:19;7.90;99.90
5775;DHT22;2913;51.120;6.772;2023-02-04T06:11:45;7.90;99.90
5775;DHT22;2913;51.120;6.772;2023-02-04T06:14:10;7.90;99.90
5775;DHT22;2913;51.120;6.772;2023-02-04T06:16:36;7.90;99.90
5775;DHT22;2913;51.120;6.772;2023-02-04T06:19:02;7.90;99.90
5775;DHT22;2913;51.120;6.772;2023-02-04T06:21:30;7.90;99.90
5775;DHT22;2913;51.120;6.772;2023-02-04T06:23:55;7.90;99.90
5775;DHT22;2913;51.120;6.772;2023-02-04T06:26:21;7.90;99.90
5775;DHT22;2913;51.120;6.772;2023-02-04T06:28:47;7.80;99.90
5775;DHT22;2913;51.120;6.772;2023-02-04T06:31:12;7.80;99.90
5775;DHT22;2913;51.120;6.772;2023-02-04T06:33:42;7.90;99.90
5775;DHT22;2913;51.120;6.772;2023-02-04T06:36:10;7.90;99.90
5775;DHT22;2913;51.120;6.772;2023-02-04T06:38:36;7.80;99.90
5775;DHT22;2913;51.120;6.772;2023-02-04T06:41:01;7.80;99.90
5775;DHT22;2913;51.120;6.772;2023-02-04T06:43:29;7.90;99.90
5775;DHT22;2913;51.120;6.772;2023-02-04T06:45:54;7.80;99.90
5775;DHT22;2913;51.120;6.772;2023-02-04T06:48:20;7.80;99.90
5775;DHT22;2913;51.120;6.772;2023-02-04T06:50:48;7.80;99.90
5775;DHT22;2913;51.120;6.772;2023-02-04T06:53:14;7.80;99.90
5775;DHT22;2913;51.120;6.772;2023-02-04T06:55:39;7.80;99.90
5775;DHT22;2913;51.120;6.772;2023-02-04T06:58:05;7.80;99.90
5775;DHT22;2913;51.120;6.772;2023-02-04T07:00:30;7.80;99.90
5775;DHT22;2913;51.120;6.772;2023-02-04T07:02:56;7.80;99.90
5775;DHT22;2913;51.120;6.772;2023-02-04T07:05:23;7.80;99.90
5775;DHT22;2913;51.120;6.772;2023-02-04T07:07:56;7.80;99.90
5775;DHT22;2913;51.120;6.772;2023-02-04T07:10:22;7.70;99.90
5775;DHT22;2913;51.120;6.772;2023-02-04T07:12:50;7.70;99.90
5775;DHT22;2913;51.120;6.772;2023-02-04T07:15:16;7.70;99.90
5775;DHT22;2913;51.120;6.772;2023-02-04T07:17:44;7.70;99.90
5775;DHT22;2913;51.120;6.772;2023-02-04T07:20:12;7.70;99.90
5775;DHT22;2913;51.120;6.772;2023-02-04T07:22:37;7.70;99.90
5775;DHT22;2913;51.120;6.772;2023-02-04T07:25:07;7.70;99.90
5775;DHT22;2913;51.120;6.772;2023-02-04T07:27:32;7.70;99.90
5775;DHT22;2913;51.120;6.772;2023-02-04T07:29:58;7.70;99.90
5775;DHT22;2913;51.120;6.772;2023-02-04T07:32:24;7.70;99.90
5775;DHT22;2913;51.120;6.772;2023-02-04T07:34:52;7.70;99.90
5775;DHT22;2913;51.120;6.772;2023-02-04T07:37:20;7.70;99.90
5775;DHT22;2913;51.120;6.772;2023-02-04T07:39:47;7.80;99.90
5775;DHT22;2913;51.120;6.772;2023-02-04T07:42:12;7.80;99.90
5775;DHT22;2913;51.120;6.772;2023-02-04T07:44:38;7.80;99.90
5775;DHT22;2913;51.120;6.772;2023-02-04T07:47:06;7.80;99.90
5775;DHT22;2913;51.120;6.772;2023-02-04T07:49:32;7.80;99.90
5775;DHT22;2913;51.120;6.772;2023-02-04T07:52:00;7.80;99.90
5775;DHT22;2913;51.120;6.772;2023-02-04T07:54:25;7.80;99.90
5775;DHT22;2913;51.120;6.772;2023-02-04T07:56:51;7.80;99.90
5775;DHT22;2913;51.120;6.772;2023-02-04T07:59:16;7.90;99.90
5775;DHT22;2913;51.120;6.772;2023-02-04T08:01:42;7.90;99.90
5775;DHT22;2913;51.120;6.772;2023-02-04T08:04:08;7.90;99.90
5775;DHT22;2913;51.120;6.772;2023-02-04T08:06:35;8.00;99.90
5775;DHT22;2913;51.120;6.772;2023-02-04T08:09:01;8.00;99.90
5775;DHT22;2913;51.120;6.772;2023-02-04T08:11:27;8.00;99.90
5775;DHT22;2913;51.120;6.772;2023-02-04T08:13:52;8.00;99.90
5775;DHT22;2913;51.120;6.772;2023-02-04T08:16:18;8.00;99.90
5775;DHT22;2913;51.120;6.772;2023-02-04T08:18:43;8.10;99.90
5775;DHT22;2913;51.120;6.772;2023-02-04T08:21:11;8.10;99.90
5775;DHT22;2913;51.120;6.772;2023-02-04T08:23:39;8.10;99.90
5775;DHT22;2913;51.120;6.772;2023-02-04T08:26:08;8.20;99.90
5775;DHT22;2913;51.120;6.772;2023-02-04T08:28:34;8.20;99.90
5775;DHT22;2913;51.120;6.772;2023-02-04T08:31:00;8.20;99.90
5775;DHT22;2913;51.120;6.772;2023-02-04T08:33:26;8.20;99.90
5775;DHT22;2913;51.120;6.772;2023-02-04T08:35:51;8.30;99.90
5775;DHT22;2913;51.120;6.772;2023-02-04T08:38:17;8.30;99.90
5775;DHT22;2913;51.120;6.772;2023-02-04T08:40:45;8.30;99.90
5775;DHT22;2913;51.120;6.772;2023-02-04T08:43:10;8.30;99.90
5775;DHT22;2913;51.120;6.772;2023-02-04T08:45:38;8.40;99.90
5775;DHT22;2913;51.120;6.772;2023-02-04T08:48:07;8.40;99.90
5775;DHT22;2913;51.120;6.772;2023-02-04T08:50:34;8.50;99.90
5775;DHT22;2913;51.120;6.772;2023-02-04T08:52:59;8.50;99.90
5775;DHT22;2913;51.120;6.772;2023-02-04T08:55:25;8.60;99.90
5775;DHT22;2913;51.120;6.772;2023-02-04T08:57:53;8.60;99.90
5775;DHT22;2913;51.120;6.772;2023-02-04T09:00:23;8.70;99.90
5775;DHT22;2913;51.120;6.772;2023-02-04T09:02:51;8.70;99.90
5775;DHT22;2913;51.120;6.772;2023-02-04T09:05:17;8.80;99.90
5775;DHT22;2913;51.120;6.772;2023-02-04T09:07:43;8.80;99.90
5775;DHT22;2913;51.120;6.772;2023-02-04T09:10:09;8.80;99.90
5775;DHT22;2913;51.120;6.772;2023-02-04T09:12:34;8.80;99.90
5775;DHT22;2913;51.120;6.772;2023-02-04T09:15:00;8.90;99.90
5775;DHT22;2913;51.120;6.772;2023-02-04T09:17:28;8.90;99.90
5775;DHT22;2913;51.120;6.772;2023-02-04T09:19:54;8.90;99.90
5775;DHT22;2913;51.120;6.772;2023-02-04T09:22:19;8.90;99.90
5775;DHT22;2913;51.120;6.772;2023-02-04T09:24:47;9.00;99.90
5775;DHT22;2913;51.120;6.772;2023-02-04T09:27:15;9.00;99.90
5775;DHT22;2913;51.120;6.772;2023-02-04T09:29:40;8.90;99.90
5775;DHT22;2913;51.120;6.772;2023-02-04T09:32:06;8.90;99.90
5775;DHT22;2913;51.120;6.772;2023-02-04T09:34:34;9.00;99.90
5775;DHT22;2913;51.120;6.772;2023-02-04T09:36:59;9.00;99.90
5775;DHT22;2913;51.120;6.772;2023-02-04T09:39:27;9.10;99.90
5775;DHT22;2913;51.120;6.772;2023-02-04T09:41:56;9.10;99.90
5775;DHT22;2913;51.120;6.772;2023-02-04T09:44:24;9.20;99.90
5775;DHT22;2913;51.120;6.772;2023-02-04T09:46:54;9.20;99.90
5775;DHT22;2913;51.120;6.772;2023-02-04T09:49:20;9.20;99.90
5775;DHT22;2913;51.120;6.772;2023-02-04T09:51:47;9.20;99.90
5775;DHT22;2913;51.120;6.772;2023-02-04T09:54:16;9.20;99.90
5775;DHT22;2913;51.120;6.772;2023-02-04T09:56:44;9.30;99.90
5775;DHT22;2913;51.120;6.772;2023-02-04T09:59:21;9.30;99.90
5775;DHT22;2913;51.120;6.772;2023-02-04T10:02:18;9.30;99.90
5775;DHT22;2913;51.120;6.772;2023-02-04T10:04:47;9.40;99.90
5775;DHT22;2913;51.120;6.772;2023-02-04T10:07:21;9.40;99.90
5775;DHT22;2913;51.120;6.772;2023-02-04T10:09:50;9.40;99.90
5775;DHT22;2913;51.120;6.772;2023-02-04T10:12:16;9.40;99.90
5775;DHT22;2913;51.120;6.772;2023-02-04T10:14:47;9.50;99.90
5775;DHT22;2913;51.120;6.772;2023-02-04T10:17:18;9.50;99.90
5775;DHT22;2913;51.120;6.772;2023-02-04T10:19:44;9.50;99.90
5775;DHT22;2913;51.120;6.772;2023-02-04T10:22:16;9.40;99.90
5775;DHT22;2913;51.120;6.772;2023-02-04T10:24:42;9.40;99.90
5775;DHT22;2913;51.120;6.772;2023-02-04T10:27:09;9.40;99.90
5775;DHT22;2913;51.120;6.772;2023-02-04T10:29:35;9.50;99.90
5775;DHT22;2913;51.120;6.772;2023-02-04T10:32:04;9.60;99.90
5775;DHT22;2913;51.120;6.772;2023-02-04T10:34:37;9.60;99.90
5775;DHT22;2913;51.120;6.772;2023-02-04T10:37:24;9.60;99.90
5775;DHT22;2913;51.120;6.772;2023-02-04T10:39:50;9.60;99.90
5775;DHT22;2913;51.120;6.772;2023-02-04T10:44:48;9.70;99.90
5775;DHT22;2913;51.120;6.772;2023-02-04T10:47:20;9.80;99.90
5775;DHT22;2913;51.120;6.772;2023-02-04T10:49:52;9.80;99.90
5775;DHT22;2913;51.120;6.772;2023-02-04T10:52:18;9.80;99.90
5775;DHT22;2913;51.120;6.772;2023-02-04T10:54:45;9.80;99.90
5775;DHT22;2913;51.120;6.772;2023-02-04T10:59:48;9.90;99.90
5775;DHT22;2913;51.120;6.772;2023-02-04T11:04:55;10.00;99.90
5775;DHT22;2913;51.120;6.772;2023-02-04T11:07:21;10.10;99.90
5775;DHT22;2913;51.120;6.772;2023-02-04T11:09:50;10.20;99.90
5775;DHT22;2913;51.120;6.772;2023-02-04T11:12:21;10.30;99.90
5775;DHT22;2913;51.120;6.772;2023-02-04T11:14:55;10.40;99.90
5775;DHT22;2913;51.120;6.772;2023-02-04T11:17:27;10.50;99.90
5775;DHT22;2913;51.120;6.772;2023-02-04T11:19:54;10.20;99.90
5775;DHT22;2913;51.120;6.772;2023-02-04T11:27:57;10.20;99.90
5775;DHT22;2913;51.120;6.772;2023-02-04T11:30:31;10.10;99.90
5775;DHT22;2913;51.120;6.772;2023-02-04T11:33:03;10.10;99.90
5775;DHT22;2913;51.120;6.772;2023-02-04T11:35:29;10.20;99.90
5775;DHT22;2913;51.120;6.772;2023-02-04T11:37:56;10.30;99.90
5775;DHT22;2913;51.120;6.772;2023-02-04T11:45:33;10.40;99.90
5775;DHT22;2913;51.120;6.772;2023-02-04T11:48:10;10.40;99.90
5775;DHT22;2913;51.120;6.772;2023-02-04T11:50:40;10.50;99.90
5775;DHT22;2913;51.120;6.772;2023-02-04T11:53:09;10.70;99.90
5775;DHT22;2913;51.120;6.772;2023-02-04T11:55:41;10.50;99.90
5775;DHT22;2913;51.120;6.772;2023-02-04T11:58:11;10.70;99.90
5775;DHT22;2913;51.120;6.772;2023-02-04T12:00:38;10.70;99.90
5775;DHT22;2913;51.120;6.772;2023-02-04T12:05:48;10.90;99.90
5775;DHT22;2913;51.120;6.772;2023-02-04T12:08:29;10.90;99.90
5775;DHT22;2913;51.120;6.772;2023-02-04T12:11:12;10.90;99.90
5775;DHT22;2913;51.120;6.772;2023-02-04T12:13:53;10.90;99.90
5775;DHT22;2913;51.120;6.772;2023-02-04T12:16:21;11.00;99.90
5775;DHT22;2913;51.120;6.772;2023-02-04T12:18:47;11.10;99.90
5775;DHT22;2913;51.120;6.772;2023-02-04T12:21:13;11.10;99.90
5775;DHT22;2913;51.120;6.772;2023-02-04T12:23:39;11.10;99.90
5775;DHT22;2913;51.120;6.772;2023-02-04T12:26:07;11.20;99.90
5775;DHT22;2913;51.120;6.772;2023-02-04T12:28:32;11.20;99.90
5775;DHT22;2913;51.120;6.772;2023-02-04T12:30:58;11.20;99.90
5775;DHT22;2913;51.120;6.772;2023-02-04T12:33:26;11.30;99.90
5775;DHT22;2913;51.120;6.772;2023-02-04T12:35:52;11.30;99.90
5775;DHT22;2913;51.120;6.772;2023-02-04T12:38:18;11.30;99.90
5775;DHT22;2913;51.120;6.772;2023-02-04T12:40:44;11.40;99.90
5775;DHT22;2913;51.120;6.772;2023-02-04T12:43:09;11.30;99.90
5775;DHT22;2913;51.120;6.772;2023-02-04T12:45:35;11.00;99.90
5775;DHT22;2913;51.120;6.772;2023-02-04T12:48:02;11.10;99.90
5775;DHT22;2913;51.120;6.772;2023-02-04T12:50:28;11.10;99.90
5775;DHT22;2913;51.120;6.772;2023-02-04T12:52:58;11.10;99.90
5775;DHT22;2913;51.120;6.772;2023-02-04T12:55:27;11.30;99.90
5775;DHT22;2913;51.120;6.772;2023-02-04T12:57:54;11.30;99.90
5775;DHT22;2913;51.120;6.772;2023-02-04T13:00:21;11.40;99.90
5775;DHT22;2913;51.120;6.772;2023-02-04T13:02:50;11.30;99.90
5775;DHT22;2913;51.120;6.772;2023-02-04T13:05:16;11.30;99.90
5775;DHT22;2913;51.120;6.772;2023-02-04T13:07:42;11.40;99.90
5775;DHT22;2913;51.120;6.772;2023-02-04T13:10:09;11.40;99.90
5775;DHT22;2913;51.120;6.772;2023-02-04T13:12:35;11.40;99.90
5775;DHT22;2913;51.120;6.772;2023-02-04T13:15:00;11.40;99.90
5775;DHT22;2913;51.120;6.772;2023-02-04T13:17:28;11.30;99.90
5775;DHT22;2913;51.120;6.772;2023-02-04T13:19:54;11.30;99.90
5775;DHT22;2913;51.120;6.772;2023-02-04T13:22:22;11.30;99.90
5775;DHT22;2913;51.120;6.772;2023-02-04T13:24:50;11.40;99.90
5775;DHT22;2913;51.120;6.772;2023-02-04T13:27:16;11.50;99.90
5775;DHT22;2913;51.120;6.772;2023-02-04T13:29:41;11.50;99.90
5775;DHT22;2913;51.120;6.772;2023-02-04T13:32:09;11.50;99.90
5775;DHT22;2913;51.120;6.772;2023-02-04T13:34:35;11.50;99.90
5775;DHT22;2913;51.120;6.772;2023-02-04T13:37:01;11.60;99.90
5775;DHT22;2913;51.120;6.772;2023-02-04T13:39:27;11.60;99.90
5775;DHT22;2913;51.120;6.772;2023-02-04T13:41:55;11.60;99.90
5775;DHT22;2913;51.120;6.772;2023-02-04T13:44:23;11.60;99.90
5775;DHT22;2913;51.120;6.772;2023-02-04T13:46:48;11.60;99.90
5775;DHT22;2913;51.120;6.772;2023-02-04T13:49:14;11.70;99.90
5775;DHT22;2913;51.120;6.772;2023-02-04T13:51:42;11.70;99.90
5775;DHT22;2913;51.120;6.772;2023-02-04T13:54:07;11.70;99.90
5775;DHT22;2913;51.120;6.772;2023-02-04T13:56:38;11.70;99.90
5775;DHT22;2913;51.120;6.772;2023-02-04T13:59:06;11.70;99.90
5775;DHT22;2913;51.120;6.772;2023-02-04T14:01:31;11.60;99.90
5775;DHT22;2913;51.120;6.772;2023-02-04T14:03:57;11.60;99.90
5775;DHT22;2913;51.120;6.772;2023-02-04T14:06:25;11.60;99.90
5775;DHT22;2913;51.120;6.772;2023-02-04T14:09:00;11.60;99.90
5775;DHT22;2913;51.120;6.772;2023-02-04T14:11:28;11.50;99.90
5775;DHT22;2913;51.120;6.772;2023-02-04T14:13:56;11.40;99.90
5775;DHT22;2913;51.120;6.772;2023-02-04T14:16:22;11.40;99.90
5775;DHT22;2913;51.120;6.772;2023-02-04T14:18:52;11.40;99.90
5775;DHT22;2913;51.120;6.772;2023-02-04T14:21:17;11.40;99.90
5775;DHT22;2913;51.120;6.772;2023-02-04T14:23:43;11.40;99.90
5775;DHT22;2913;51.120;6.772;2023-02-04T14:26:09;11.40;99.90
5775;DHT22;2913;51.120;6.772;2023-02-04T14:28:34;11.40;99.90
5775;DHT22;2913;51.120;6.772;2023-02-04T14:31:00;11.40;99.90
5775;DHT22;2913;51.120;6.772;2023-02-04T14:33:30;11.40;99.90
5775;DHT22;2913;51.120;6.772;2023-02-04T14:35:56;11.30;99.90
5775;DHT22;2913;51.120;6.772;2023-02-04T14:38:21;11.30;99.90
5775;DHT22;2913;51.120;6.772;2023-02-04T14:40:47;11.30;99.90
5775;DHT22;2913;51.120;6.772;2023-02-04T14:43:15;11.30;99.90
5775;DHT22;2913;51.120;6.772;2023-02-04T14:45:43;11.30;99.90
5775;DHT22;2913;51.120;6.772;2023-02-04T14:48:10;11.30;99.90
5775;DHT22;2913;51.120;6.772;2023-02-04T14:50:35;11.40;99.90
5775;DHT22;2913;51.120;6.772;2023-02-04T14:53:01;11.20;99.90
5775;DHT22;2913;51.120;6.772;2023-02-04T14:55:27;11.20;99.90
5775;DHT22;2913;51.120;6.772;2023-02-04T14:57:52;11.30;99.90
5775;DHT22;2913;51.120;6.772;2023-02-04T15:00:19;11.20;99.90
5775;DHT22;2913;51.120;6.772;2023-02-04T15:02:45;11.30;99.90
5775;DHT22;2913;51.120;6.772;2023-02-04T15:05:12;11.30;99.90
5775;DHT22;2913;51.120;6.772;2023-02-04T15:07:41;11.30;99.90
5775;DHT22;2913;51.120;6.772;2023-02-04T15:10:12;11.30;99.90
5775;DHT22;2913;51.120;6.772;2023-02-04T15:12:40;11.30;99.90
5775;DHT22;2913;51.120;6.772;2023-02-04T15:15:05;11.30;99.90
5775;DHT22;2913;51.120;6.772;2023-02-04T15:17:31;11.30;99.90
5775;DHT22;2913;51.120;6.772;2023-02-04T15:19:57;11.30;99.90
5775;DHT22;2913;51.120;6.772;2023-02-04T15:22:22;11.30;99.90
5775;DHT22;2913;51.120;6.772;2023-02-04T15:24:50;11.20;99.90
5775;DHT22;2913;51.120;6.772;2023-02-04T15:27:16;11.10;99.90
5775;DHT22;2913;51.120;6.772;2023-02-04T15:29:44;11.10;99.90
5775;DHT22;2913;51.120;6.772;2023-02-04T15:32:09;11.10;99.90
5775;DHT22;2913;51.120;6.772;2023-02-04T15:34:35;11.00;99.90
5775;DHT22;2913;51.120;6.772;2023-02-04T15:37:03;11.00;99.90
5775;DHT22;2913;51.120;6.772;2023-02-04T15:39:29;10.90;99.90
5775;DHT22;2913;51.120;6.772;2023-02-04T15:41:59;10.90;99.90
5775;DHT22;2913;51.120;6.772;2023-02-04T15:44:25;10.90;99.90
5775;DHT22;2913;51.120;6.772;2023-02-04T15:46:53;10.90;99.90
5775;DHT22;2913;51.120;6.772;2023-02-04T15:49:19;10.90;99.90
5775;DHT22;2913;51.120;6.772;2023-02-04T15:51:47;10.80;99.90
5775;DHT22;2913;51.120;6.772;2023-02-04T15:54:13;10.80;99.90
5775;DHT22;2913;51.120;6.772;2023-02-04T15:56:43;10.80;99.90
5775;DHT22;2913;51.120;6.772;2023-02-04T15:59:11;10.80;99.90
5775;DHT22;2913;51.120;6.772;2023-02-04T16:01:36;10.70;99.90
5775;DHT22;2913;51.120;6.772;2023-02-04T16:04:04;10.70;99.90
5775;DHT22;2913;51.120;6.772;2023-02-04T16:06:29;10.70;99.90
5775;DHT22;2913;51.120;6.772;2023-02-04T16:08:55;10.70;99.90
5775;DHT22;2913;51.120;6.772;2023-02-04T16:11:23;10.60;99.90
5775;DHT22;2913;51.120;6.772;2023-02-04T16:13:48;10.60;99.90
5775;DHT22;2913;51.120;6.772;2023-02-04T16:16:14;10.60;99.90
5775;DHT22;2913;51.120;6.772;2023-02-04T16:18:42;10.50;99.90
5775;DHT22;2913;51.120;6.772;2023-02-04T16:21:07;10.50;99.90
5775;DHT22;2913;51.120;6.772;2023-02-04T16:23:33;10.50;99.90
5775;DHT22;2913;51.120;6.772;2023-02-04T16:25:58;10.40;99.90
5775;DHT22;2913;51.120;6.772;2023-02-04T16:28:26;10.30;99.90
5775;DHT22;2913;51.120;6.772;2023-02-04T16:30:52;10.30;99.90
5775;DHT22;2913;51.120;6.772;2023-02-04T16:33:20;10.20;99.90
5775;DHT22;2913;51.120;6.772;2023-02-04T16:38:22;10.10;99.90